Latest Weather Observations for Perth

IDW60801

Issued at 3:03 pm WST Sunday 3 December 2023 (issued every 10 minutes, with the page automatically refreshed every 10 minutes)

About weather observations | Map of weather stations | Latest weather observations for WA | Other Formats
Station Details ID: 009225 Name: PERTH METRO Lat: -31.92 Lon: 115.87 Height: 24.9 m
Data from the previous 72 hours. | See also: Recent months at Perth
Date/Time
WST
Temp
°C
App
Temp
°C
Dew
Point
°C
Rel
Hum
%
Delta-T
°C
Wind Press
QNH
hPa
Press
MSL
hPa
Rain since
9am
mm
Dir  Spd
km/h
Gust
km/h
Spd
kts
Gust
kts
03/03:00pm 24.8 23.5 14.9 54 5.9 WSW 15 24 8 13 1013.9 1013.7 0.0
03/02:30pm 25.0 24.3 15.3 55 5.8 SW 13 24 7 13 1013.9 1013.7 0.0
03/02:00pm 25.5 24.2 14.9 52 6.4 WSW 15 24 8 13 1013.9 1013.7 0.0
03/01:30pm 25.2 24.3 14.9 52 6.2 WSW 13 20 7 11 1013.8 1013.6 0.0
03/01:00pm 24.9 23.7 15.0 54 5.9 WSW 15 24 8 13 1013.9 1013.7 0.0
03/12:30pm 25.2 24.7 15.8 56 5.7 W 13 20 7 11 1014.1 1013.9 0.0
03/12:00pm 25.2 24.5 15.5 55 5.9 WSW 13 28 7 15 1014.2 1014.0 0.0
03/11:30am 24.6 23.8 15.0 55 5.8 W 13 26 7 14 1014.2 1014.0 0.0
03/11:00am 24.9 24.6 15.5 56 5.7 W 11 20 6 11 1014.2 1014.0 0.0
03/10:30am 24.4 24.3 15.9 59 5.2 W 11 20 6 11 1014.3 1014.1 0.0
03/10:00am 24.0 23.5 15.8 60 5.0 WSW 13 20 7 11 1014.1 1013.9 0.0
03/09:30am 24.6 24.2 15.2 55 5.7 WSW 11 19 6 10 1013.9 1013.7 0.0
03/09:00am 23.8 22.8 14.5 56 5.5 SW 13 20 7 11 1013.9 1013.7 0.0
03/08:30am 23.7 23.4 15.5 60 4.9 SW 11 19 6 10 1013.9 1013.7 0.0
03/08:00am 22.8 22.9 15.4 63 4.4 W 9 13 5 7 1013.6 1013.4 0.0
03/07:30am 22.4 23.0 16.7 70 3.5 WSW 9 19 5 10 1013.4 1013.2 0.0
03/07:00am 22.0 22.8 16.3 70 3.5 WSW 7 13 4 7 1013.1 1012.9 0.0
03/06:30am 21.5 22.6 17.1 76 2.7 WSW 7 15 4 8 1012.8 1012.6 0.0
03/06:00am 21.2 22.3 17.2 78 2.5 WSW 7 15 4 8 1012.5 1012.3 0.0
03/05:30am 20.3 21.4 16.7 80 2.2 SW 6 13 3 7 1012.3 1012.1 0.0
03/05:00am 19.9 21.5 16.9 83 1.8 SW 4 11 2 6 1011.8 1011.7 0.0
03/04:30am 19.7 21.8 17.1 85 1.6 SW 2 7 1 4 1011.5 1011.4 0.0
03/04:00am 18.4 20.4 16.0 86 1.4 CALM 0 0 0 0 1011.4 1011.3 0.0
03/03:30am 18.8 20.8 15.9 83 1.7 CALM 0 6 0 3 1011.2 1011.1 0.0
03/03:00am 19.9 21.2 16.2 79 2.2 SW 4 9 2 5 1011.3 1011.2 0.0
03/02:30am 19.7 20.4 16.0 79 2.2 SW 7 15 4 8 1011.3 1011.2 0.0
03/02:00am 19.7 21.2 15.6 77 2.4 SW 2 7 1 4 1011.3 1011.2 0.0
03/01:30am 19.8 20.4 15.7 77 2.4 SW 7 9 4 5 1011.4 1011.3 0.0
03/01:00am 20.1 20.5 15.3 74 2.8 WSW 7 11 4 6 1011.5 1011.4 0.0
03/12:30am 20.6 21.2 15.8 74 2.9 WSW 7 13 4 7 1011.6 1011.5 0.0
03/12:00am 20.7 21.1 16.3 76 2.7 SW 9 15 5 8 1011.8 1011.7 0.0
 
Date/Time
WST
Temp
°C
App
Temp
°C
Dew
Point
°C
Rel
Hum
%
Delta-T
°C
Wind Press
QNH
hPa
Press
MSL
hPa
Rain since
9am
mm
Dir  Spd
km/h
Gust
km/h
Spd
kts
Gust
kts
02/11:30pm 20.7 21.0 16.1 75 2.8 WSW 9 17 5 9 1012.3 1012.1 0.0
02/11:00pm 20.7 20.1 15.7 73 3.0 SW 13 20 7 11 1012.4 1012.2 0.0
02/10:30pm 20.7 20.8 15.5 72 3.1 SW 9 17 5 9 1012.3 1012.1 0.0
02/10:00pm 20.6 20.5 14.9 70 3.4 SW 9 17 5 9 1012.1 1012.0 0.0
02/09:30pm 20.4 19.6 15.2 72 3.1 SW 13 20 7 11 1012.7 1012.5 0.0
02/09:00pm 20.3 19.1 15.1 72 3.1 SW 15 24 8 13 1012.5 1012.3 0.0
02/08:30pm 20.6 19.5 15.4 72 3.1 SW 15 24 8 13 1012.6 1012.4 0.0
02/08:00pm 20.5 19.3 15.1 71 3.2 SW 15 24 8 13 1012.4 1012.2 0.0
02/07:30pm 20.6 19.3 14.9 70 3.4 SW 15 24 8 13 1012.0 1011.9 0.0
02/07:00pm 20.6 19.5 15.2 71 3.2 SW 15 24 8 13 1011.9 1011.8 0.0
02/06:30pm 21.0 19.6 14.6 67 3.8 SW 15 28 8 15 1011.6 1011.5 0.0
02/06:00pm 21.9 21.0 14.8 64 4.2 SW 13 28 7 15 1011.4 1011.3 0.0
02/05:30pm 21.6 19.9 14.7 65 4.1 SW 17 28 9 15 1011.2 1011.1 0.0
02/05:00pm 23.1 21.6 15.2 61 4.7 SW 17 28 9 15 1010.6 1010.5 0.0
02/04:30pm 23.3 21.5 15.6 62 4.6 SW 19 30 10 16 1010.4 1010.3 0.0
02/04:00pm 23.7 21.9 15.5 60 4.9 WSW 19 30 10 16 1010.1 1010.0 0.0
02/03:30pm 24.5 23.4 15.4 57 5.5 SW 15 24 8 13 1009.7 1009.6 0.0
02/03:00pm 24.5 23.4 15.4 57 5.5 WSW 15 26 8 14 1009.7 1009.6 0.0
02/02:30pm 24.7 23.6 15.3 56 5.7 WSW 15 28 8 15 1009.9 1009.8 0.0
02/02:00pm 24.7 23.7 15.6 57 5.5 WSW 15 28 8 15 1009.9 1009.8 0.0
02/01:30pm 25.6 24.7 15.9 55 5.9 SW 15 24 8 13 1010.2 1010.1 0.0
02/01:00pm 25.1 23.5 16.0 57 5.6 SW 19 28 10 15 1010.2 1010.1 0.0
02/12:30pm 25.5 24.8 16.4 57 5.6 WSW 15 26 8 14 1010.2 1010.1 0.0
02/12:00pm 24.6 23.1 15.2 55 5.7 SW 17 26 9 14 1010.3 1010.2 0.0
02/11:30am 25.8 26.2 17.2 59 5.4 WSW 11 20 6 11 1010.1 1010.0 0.0
02/11:00am 25.9 25.4 15.9 54 6.1 WSW 13 20 7 11 1010.1 1010.0 0.0
02/10:30am 25.3 25.2 15.9 56 5.7 W 11 24 6 13 1010.0 1009.9 0.0
02/10:00am 25.0 24.9 15.9 57 5.5 WSW 11 19 6 10 1010.2 1010.1 0.0
02/09:30am 24.9 25.0 16.6 60 5.1 WSW 11 19 6 10 1010.1 1010.0 0.0
02/09:00am 24.1 24.6 16.6 63 4.6 SW 9 15 5 8 1010.2 1010.1 0.0
02/08:30am 23.1 23.5 16.2 65 4.2 SSW 9 17 5 9 1010.2 1010.1 0.0
02/08:00am 22.0 21.9 16.1 69 3.6 SW 11 17 6 9 1010.4 1010.3 0.0
02/07:30am 22.5 23.2 17.0 71 3.4 SSW 9 17 5 9 1010.3 1010.2 0.0
02/07:00am 21.7 21.8 16.6 73 3.1 SW 11 19 6 10 1010.1 1010.0 0.0
02/06:30am 21.4 21.9 16.6 74 2.9 SW 9 15 5 8 1009.8 1009.7 0.0
02/06:00am 20.7 22.9 17.5 82 2.0 S 2 7 1 4 1009.5 1009.4 0.0
02/05:30am 20.5 22.3 17.5 83 1.8 SSW 4 7 2 4 1009.5 1009.4 0.0
02/05:00am 20.4 22.6 17.4 83 1.8 SSE 2 7 1 4 1009.1 1009.0 0.0
02/04:30am 20.6 22.0 17.4 82 2.0 SSE 6 11 3 6 1008.9 1008.8 0.0
02/04:00am 20.7 21.5 17.3 81 2.1 SSW 9 15 5 8 1009.0 1008.9 0.0
02/03:30am 20.7 21.2 17.5 82 2.0 SW 11 17 6 9 1009.1 1009.0 0.0
02/03:00am 20.6 21.9 17.6 83 1.8 S 7 11 4 6 1008.5 1008.4 0.0
02/02:30am 20.5 21.6 17.9 85 1.6 S 9 15 5 8 1008.3 1008.2 0.0
02/02:00am 20.7 22.0 18.5 87 1.4 SSW 9 17 5 9 1008.4 1008.3 0.0
02/01:30am 20.5 21.9 18.6 89 1.2 SW 9 15 5 8 1008.5 1008.4 0.0
02/01:00am 20.5 22.2 18.4 88 1.3 SW 7 13 4 7 1008.5 1008.4 0.0
02/12:30am 20.6 22.3 18.4 87 1.4 SW 7 11 4 6 1008.7 1008.6 0.0
02/12:00am 20.0 22.5 17.2 84 1.7 CALM 0 6 0 3 1008.9 1008.8 0.0
 
Date/Time
WST
Temp
°C
App
Temp
°C
Dew
Point
°C
Rel
Hum
%
Delta-T
°C
Wind Press
QNH
hPa
Press
MSL
hPa
Rain since
9am
mm
Dir  Spd
km/h
Gust
km/h
Spd
kts
Gust
kts
01/11:30pm 20.3 22.6 16.7 80 2.2 CALM 0 0 0 0 1008.9 1008.8 0.0
01/11:00pm 21.5 22.6 16.7 74 2.9 SW 6 7 3 4 1009.1 1009.0 0.0
01/10:30pm 21.9 22.8 16.0 69 3.6 SSW 6 11 3 6 1009.2 1009.1 0.0
01/10:00pm 22.4 23.0 15.7 66 4.0 SW 7 13 4 7 1009.3 1009.2 0.0
01/09:30pm 22.9 22.3 14.7 60 4.9 SSW 11 17 6 9 1009.4 1009.3 0.0
01/09:00pm 23.1 23.0 14.9 60 4.9 SSW 9 20 5 11 1009.2 1009.1 0.0
01/08:30pm 23.5 23.1 15.3 60 4.9 SW 11 20 6 11 1009.0 1008.9 0.0
01/08:00pm 24.3 23.9 14.1 53 6.0 SSW 9 20 5 11 1008.7 1008.6 0.0
01/07:30pm 24.6 23.2 13.5 50 6.5 SSW 13 26 7 14 1008.6 1008.5 0.0
01/07:00pm 24.8 24.1 14.3 52 6.2 SSW 11 19 6 10 1008.7 1008.6 0.0
01/06:30pm 24.8 23.1 14.6 53 6.1 SSW 17 28 9 15 1008.4 1008.3 0.0
01/06:00pm 26.0 24.7 15.7 53 6.3 SW 17 30 9 16 1008.2 1008.1 0.0
01/05:30pm 26.5 25.6 15.8 51 6.5 SW 15 22 8 12 1007.6 1007.5 0.0
01/05:00pm 26.5 25.7 16.1 52 6.4 SSW 15 24 8 13 1007.4 1007.3 0.0
01/04:30pm 28.3 26.2 15.2 44 8.0 WSW 20 33 11 18 1007.3 1007.2 0.0
01/04:00pm 28.5 26.5 15.4 45 8.0 WSW 20 30 11 16 1007.2 1007.1 0.0
01/03:30pm 29.1 27.9 16.0 45 8.1 SW 17 30 9 16 1007.2 1007.1 0.0
01/03:00pm 30.2 27.9 14.7 39 9.5 SW 20 30 11 16 1007.3 1007.2 0.0
01/02:30pm 31.9 29.4 13.6 32 11.0 SW 19 28 10 15 1007.4 1007.3 0.0
01/02:00pm 32.7 31.2 14.3 32 11.3 WSW 15 22 8 12 1007.6 1007.5 0.0
01/01:30pm 33.6 32.6 15.6 34 11.3 W 15 26 8 14 1007.7 1007.6 0.0
01/01:00pm 34.7 32.5 7.7 19 15.1 S 9 19 5 10 1007.9 1007.8 0.0
01/12:30pm 33.9 32.3 7.8 20 14.5 NNE 6 9 3 5 1008.3 1008.2 0.0
01/12:00pm 33.1 31.9 11.6 27 12.7 NE 9 17 5 9 1008.7 1008.6 0.0
01/11:30am 32.4 31.6 11.6 28 12.2 ENE 7 17 4 9 1009.1 1009.0 0.0
01/11:00am 31.6 30.3 12.4 31 11.4 ENE 11 20 6 11 1009.6 1009.5 0.0
01/10:30am 30.7 28.8 13.0 33 10.5 ENE 15 22 8 12 1009.9 1009.8 0.0
01/10:00am 29.4 28.1 13.6 38 9.5 ENE 13 28 7 15 1010.1 1010.0 0.0
01/09:30am 28.6 27.5 14.4 41 8.6 NE 13 20 7 11 1010.4 1010.3 0.0
01/09:00am 26.8 25.7 14.2 46 7.5 ENE 13 22 7 12 1010.6 1010.5 0.0
01/08:30am 25.2 23.8 13.4 48 6.9 ENE 13 24 7 13 1010.9 1010.8 0.0
01/08:00am 24.1 23.0 14.2 54 5.8 ENE 13 20 7 11 1011.1 1011.0 0.0
01/07:30am 22.5 20.5 12.7 54 5.6 ENE 15 24 8 13 1011.2 1011.2 0.0
01/07:00am 21.5 20.9 13.4 60 4.7 E 9 17 5 9 1011.3 1011.3 0.0
01/06:30am 19.6 18.9 13.1 66 3.7 E 9 20 5 11 1011.4 1011.4 0.0
01/06:00am 19.0 17.0 12.7 67 3.5 E 15 28 8 15 1011.6 1011.6 0.0
01/05:30am 18.8 18.3 12.8 68 3.4 ENE 7 13 4 7 1011.4 1011.4 0.0
01/05:00am 19.0 17.8 12.7 67 3.5 E 11 19 6 10 1011.3 1011.3 0.0
01/04:30am 19.3 18.5 12.8 66 3.7 E 9 17 5 9 1011.1 1011.1 0.0
01/04:00am 19.7 18.1 12.9 65 3.8 E 13 20 7 11 1011.3 1011.3 0.0
01/03:30am 20.8 19.5 12.5 59 4.7 ENE 11 26 6 14 1011.2 1011.2 0.0
01/03:00am 20.9 20.4 12.6 59 4.7 E 7 15 4 8 1011.1 1011.1 0.0
01/02:30am 20.4 20.0 13.1 63 4.2 ENE 7 15 4 8 1011.1 1011.1 0.0
01/02:00am 20.1 20.4 14.9 72 3.1 E 7 17 4 9 1011.1 1011.1 0.0
01/01:30am 19.2 22.0 17.9 92 0.8 CALM 0 0 0 0 1011.3 1011.3 0.0
01/01:00am 19.6 22.5 18.1 91 0.9 CALM 0 0 0 0 1011.3 1011.3 0.0
01/12:30am 20.2 22.6 18.7 91 0.9 SW 4 9 2 5 1011.4 1011.4 0.0
01/12:00am 19.7 22.6 18.2 91 0.9 CALM 0 0 0 0 1011.4 1011.4 0.0
 
Date/Time
WST
Temp
°C
App
Temp
°C
Dew
Point
°C
Rel
Hum
%
Delta-T
°C
Wind Press
QNH
hPa
Press
MSL
hPa
Rain since
9am
mm
Dir  Spd
km/h
Gust
km/h
Spd
kts
Gust
kts
30/11:30pm 20.0 22.9 18.1 89 1.2 CALM 0 0 0 0 1011.7 1011.7 0.0
30/11:00pm 20.4 23.2 18.0 86 1.5 CALM 0 0 0 0 1012.0 1012.0 0.0
30/10:30pm 21.5 23.2 18.1 81 2.1 SW 6 9 3 5 1012.3 1012.2 0.0
30/10:00pm 21.9 23.3 17.7 77 2.6 SW 7 11 4 6 1012.3 1012.2 0.0
30/09:30pm 22.5 23.5 16.8 70 3.5 SW 7 11 4 6 1012.5 1012.4 0.0
30/09:00pm 22.8 23.6 16.4 67 3.9 SW 7 13 4 7 1012.5 1012.4 0.0
30/08:30pm 23.1 23.3 15.7 63 4.5 SSW 9 15 5 8 1012.6 1012.5 0.0
30/08:00pm 23.4 22.7 14.4 57 5.3 SSW 11 19 6 10 1012.4 1012.3 0.0
30/07:30pm 23.5 22.5 14.5 57 5.3 SW 13 22 7 12 1012.1 1012.1 0.0
30/07:00pm 23.6 23.2 14.0 55 5.6 SSW 9 17 5 9 1011.9 1011.9 0.0
30/06:30pm 24.2 23.1 14.3 54 5.9 SW 13 22 7 12 1012.0 1012.0 0.0
30/06:00pm 24.8 23.9 14.9 54 5.9 SSW 13 19 7 10 1011.9 1011.9 0.0
30/05:30pm 24.8 23.6 15.1 54 5.8 SW 15 28 8 15 1011.8 1011.8 0.0
30/05:00pm 25.0 23.5 15.3 55 5.9 SSW 17 32 9 17 1012.0 1012.0 0.0
30/04:30pm 25.4 23.2 14.5 51 6.5 SW 19 30 10 16 1012.0 1012.0 0.0
30/04:00pm 25.2 23.1 15.2 54 6.0 SW 20 30 11 16 1012.3 1012.2 0.0
30/03:30pm 26.3 25.3 15.7 52 6.5 WSW 15 26 8 14 1012.3 1012.2 0.0

Other formats

Comma delimited format used in spreadsheet applications
http://www.bom.gov.au/fwo/IDW60801/IDW60801.94608.axf

JavaScript Object Notation format (JSON) in row-major order
http://www.bom.gov.au/fwo/IDW60801/IDW60801.94608.json

Data quality

Most of these data are generated automatically and are frequently updated. Quality checks on data are not normally performed. It is possible for incorrect values to appear. Refer to information at About Latest Weather Observations and please check the disclaimer before using these data.